Time;durP1;ratioP1;P1;durP2;ratioP2;P2;SDS_P1;SDS_P2;PMS_P1;PMS_P2;Temp;Humidity;BMP_temperature;BMP_pressure;BME280_temperature;BME280_humidity;BME280_pressure;Samples;Min_cycle;Max_cycle;Signal;HPM_P1;HPM_P2
2022/11/24 00:01:51;;;;;;;6.85;4.85;;;;;;;15.17;49.29;92428.88;5068827;28;20032;-81
2022/11/24 00:04:16;;;;;;;6.72;5.00;;;;;;;15.19;49.06;92424.41;5072126;28;20032;-82
2022/11/24 00:06:42;;;;;;;5.68;4.30;;;;;;;15.19;49.09;92429.13;5088751;28;20248;-82
2022/11/24 00:09:07;;;;;;;8.90;5.18;;;;;;;15.18;49.11;92424.91;5085111;28;20418;-81
2022/11/24 00:11:34;;;;;;;6.45;4.68;;;;;;;15.18;49.08;92414.78;5086159;28;20040;-81
2022/11/24 00:13:59;;;;;;;8.18;4.93;;;;;;;15.21;49.28;92421.19;5068991;28;20036;-82
2022/11/24 00:16:26;;;;;;;6.28;4.45;;;;;;;15.20;48.98;92425.88;5088611;28;20039;-81
2022/11/24 00:18:52;;;;;;;6.60;4.38;;;;;;;15.20;49.38;92411.53;5062775;28;20036;-81
2022/11/24 00:21:17;;;;;;;6.10;4.57;;;;;;;15.20;49.01;92428.59;5050685;28;20086;-81
2022/11/24 00:23:43;;;;;;;5.60;4.35;;;;;;;15.19;49.33;92420.94;5052395;28;20793;-81
2022/11/24 00:26:13;;;;;;;5.35;4.30;;;;;;;15.18;49.30;92425.66;5066301;28;20029;-82
2022/11/24 00:28:38;;;;;;;9.25;4.95;;;;;;;15.16;49.28;92428.16;5071268;28;20400;-81
2022/11/24 00:31:05;;;;;;;8.38;4.60;;;;;;;15.18;49.09;92422.94;5061441;28;20064;-81
2022/11/24 00:33:30;;;;;;;7.00;4.32;;;;;;;15.19;49.16;92423.66;5067575;28;20043;-81
2022/11/24 00:35:57;;;;;;;6.15;4.13;;;;;;;15.18;49.32;92422.19;5067298;28;20151;-81
2022/11/24 00:38:22;;;;;;;6.28;4.28;;;;;;;15.17;49.12;92416.00;5071000;28;20210;-81
2022/11/24 00:40:48;;;;;;;5.00;3.90;;;;;;;15.17;48.92;92420.72;5071298;28;20062;-82
2022/11/24 00:43:13;;;;;;;5.15;3.40;;;;;;;15.19;49.24;92421.69;5075724;28;20037;-82
2022/11/24 00:45:38;;;;;;;6.32;4.00;;;;;;;15.16;49.18;92430.13;5072885;28;20510;-81
2022/11/24 00:48:04;;;;;;;6.40;4.13;;;;;;;15.16;49.25;92430.13;5051019;28;20080;-81
2022/11/24 00:50:30;;;;;;;4.97;3.83;;;;;;;15.21;49.17;92421.19;5079472;28;20036;-85
2022/11/24 00:52:55;;;;;;;6.70;3.85;;;;;;;15.16;49.33;92424.69;5081836;28;20127;-82
2022/11/24 00:55:21;;;;;;;4.97;3.78;;;;;;;15.14;49.05;92430.69;5060685;28;20827;-81
2022/11/24 00:57:46;;;;;;;3.72;3.08;;;;;;;15.15;49.48;92434.13;5071347;28;20043;-81
2022/11/24 01:00:12;;;;;;;6.55;4.00;;;;;;;15.17;49.54;92437.06;5079050;28;20041;-82
2022/11/24 01:02:38;;;;;;;5.15;3.40;;;;;;;15.19;49.10;92426.41;5067880;28;20383;-81
2022/11/24 01:05:04;;;;;;;4.80;3.47;;;;;;;15.16;49.10;92430.88;5073634;28;20040;-81
2022/11/24 01:07:29;;;;;;;5.80;3.30;;;;;;;15.18;49.04;92431.09;5071237;28;20032;-81
2022/11/24 01:09:55;;;;;;;5.18;3.30;;;;;;;15.17;49.16;92435.06;5078374;28;20040;-81
2022/11/24 01:12:20;;;;;;;4.78;3.58;;;;;;;15.16;49.25;92425.44;5067206;28;20403;-81
2022/11/24 01:14:46;;;;;;;5.80;3.78;;;;;;;15.17;48.88;92434.34;5067053;28;20032;-81
2022/11/24 01:17:11;;;;;;;4.32;2.95;;;;;;;15.17;49.08;92426.91;5067359;28;20518;-81
2022/11/24 01:19:36;;;;;;;4.78;3.60;;;;;;;15.15;49.29;92431.41;5068795;28;20033;-82
2022/11/24 01:22:02;;;;;;;4.88;3.17;;;;;;;15.15;48.97;92437.59;5067618;28;20045;-81
2022/11/24 01:24:27;;;;;;;4.38;3.13;;;;;;;15.17;49.03;92437.06;5060730;28;20056;-81
2022/11/24 01:26:52;;;;;;;6.18;3.42;;;;;;;15.13;49.19;92434.66;5067184;28;20503;-81
2022/11/24 01:29:18;;;;;;;5.45;3.13;;;;;;;15.13;49.05;92440.09;5066812;28;20048;-81
2022/11/24 01:31:43;;;;;;;4.65;3.03;;;;;;;15.14;49.02;92436.13;5082946;28;20036;-81
2022/11/24 01:34:09;;;;;;;5.30;3.58;;;;;;;15.18;49.03;92442.00;5085473;28;20532;-81
2022/11/24 01:36:34;;;;;;;3.33;2.80;;;;;;;15.18;48.85;92442.00;5052579;28;20047;-81
2022/11/24 01:38:59;;;;;;;5.82;3.50;;;;;;;15.15;49.05;92443.03;5067133;28;20032;-81
2022/11/24 01:41:25;;;;;;;4.43;3.30;;;;;;;15.16;49.17;92452.66;5082686;28;20048;-81
2022/11/24 01:43:51;;;;;;;4.40;2.65;;;;;;;15.14;49.25;92446.28;5069231;28;20028;-81
2022/11/24 01:46:34;;;;;;;4.00;3.03;;;;;;;15.18;49.01;92449.41;5065686;28;20040;-81
2022/11/24 01:49:02;;;;;;;4.07;2.85;;;;;;;15.15;49.16;92453.94;5086640;28;20055;-81
2022/11/24 01:51:31;;;;;;;4.20;2.75;;;;;;;15.14;49.31;92457.16;5070318;28;20040;-81
2022/11/24 01:54:13;;;;;;;5.05;2.80;;;;;;;15.16;49.06;92457.38;5066104;28;20564;-81
2022/11/24 01:56:39;;;;;;;4.60;2.88;;;;;;;15.17;49.06;92464.28;5033591;28;20427;-82
2022/11/24 01:59:06;;;;;;;4.90;3.22;;;;;;;15.17;49.04;92456.13;5068011;28;20039;-82
2022/11/24 02:01:32;;;;;;;2.75;2.20;;;;;;;15.14;49.20;92463.34;5082995;28;20036;-81
2022/11/24 02:03:58;;;;;;;2.75;2.25;;;;;;;15.15;49.05;92466.81;5067110;28;20033;-82
2022/11/24 02:06:26;;;;;;;3.72;2.65;;;;;;;15.17;49.29;92472.44;5080525;28;20419;-82
2022/11/24 02:09:10;;;;;;;3.42;2.53;;;;;;;15.17;49.13;92472.44;5086979;28;20031;-81
2022/11/24 02:11:37;;;;;;;3.65;2.22;;;;;;;15.16;48.93;92462.81;5069039;28;20521;-81
2022/11/24 02:14:03;;;;;;;4.30;3.10;;;;;;;15.16;49.33;92466.25;5049721;28;20082;-83
2022/11/24 02:16:29;;;;;;;4.80;3.42;;;;;;;15.16;49.05;92474.44;5063713;28;20388;-81
2022/11/24 02:18:54;;;;;;;4.88;2.92;;;;;;;15.16;48.89;92474.44;5066038;28;20043;-81
2022/11/24 02:21:20;;;;;;;3.90;2.45;;;;;;;15.15;49.18;92466.81;5059511;28;20515;-81
2022/11/24 02:24:05;;;;;;;3.00;2.28;;;;;;;15.15;49.13;92475.72;5065971;28;20044;-82
2022/11/24 02:26:46;;;;;;;3.60;2.55;;;;;;;15.14;48.96;92474.22;5051518;28;20058;-81
2022/11/24 02:29:12;;;;;;;;;;;;;;;15.17;48.84;92470.47;5069336;28;20047;-81
2022/11/24 02:31:42;;;;;;;3.00;2.53;;;;;;;15.17;48.92;92473.19;5054700;28;19924;-81
2022/11/24 02:34:07;;;;;;;2.10;1.70;;;;;;;15.17;49.16;92480.63;5065347;28;20047;-81
2022/11/24 02:36:33;;;;;;;3.50;2.60;;;;;;;15.16;49.10;92479.88;5067751;28;20031;-81
2022/11/24 02:38:58;;;;;;;2.65;2.42;;;;;;;15.15;49.11;92481.16;5069643;28;20505;-81
2022/11/24 02:41:24;;;;;;;2.85;2.42;;;;;;;15.12;48.98;92478.72;5085406;28;20089;-82
2022/11/24 02:43:58;;;;;;;3.00;2.30;;;;;;;15.09;49.14;92489.38;5087095;28;20153;-81
2022/11/24 02:46:23;;;;;;;3.20;2.50;;;;;;;15.06;49.38;92486.94;5060648;28;20040;-82
2022/11/24 02:48:48;;;;;;;2.67;2.03;;;;;;;15.11;49.17;92485.41;5048883;28;20032;-82
2022/11/24 02:51:14;;;;;;;2.80;1.80;;;;;;;15.14;49.04;92495.28;5039788;28;20426;-81
2022/11/24 02:53:39;;;;;;;4.80;2.25;;;;;;;15.13;48.99;92491.06;5049156;28;20410;-81
2022/11/24 02:56:05;;;;;;;3.65;2.33;;;;;;;15.14;49.02;92498.72;5048872;28;20048;-82
2022/11/24 02:58:30;;;;;;;3.47;2.55;;;;;;;15.15;48.90;92504.91;5066227;28;20028;-81
2022/11/24 03:00:56;;;;;;;2.63;2.25;;;;;;;15.12;49.12;92501.22;5036829;28;20105;-81
2022/11/24 03:03:22;;;;;;;3.10;2.30;;;;;;;15.12;48.98;92501.22;5048079;28;20045;-84
2022/11/24 03:05:47;;;;;;;2.55;1.92;;;;;;;15.15;48.99;92518.53;5055450;28;20032;-81
2022/11/24 03:08:13;;;;;;;2.60;2.03;;;;;;;15.12;49.06;92514.84;5085484;28;20042;-81
2022/11/24 03:10:38;;;;;;;2.92;1.95;;;;;;;15.15;49.05;92521.97;5079512;28;20123;-81
2022/11/24 03:13:04;;;;;;;2.88;2.05;;;;;;;15.12;49.11;92524.97;5065728;28;20028;-81
2022/11/24 03:15:29;;;;;;;2.33;1.70;;;;;;;15.15;49.11;92529.41;5033320;28;20032;-81
2022/11/24 03:17:56;;;;;;;2.15;1.80;;;;;;;15.16;49.02;92531.59;5065495;28;20040;-84
2022/11/24 03:20:22;;;;;;;2.20;1.80;;;;;;;15.15;48.98;92524.72;5048843;28;20056;-82
2022/11/24 03:22:47;;;;;;;4.45;2.15;;;;;;;15.15;49.03;92534.84;5065174;28;20671;-81
2022/11/24 03:25:12;;;;;;;2.13;1.90;;;;;;;15.15;48.92;92530.16;5048089;28;20036;-82
2022/11/24 03:27:38;;;;;;;2.28;1.80;;;;;;;15.15;48.91;92537.56;5048374;28;20040;-81
2022/11/24 03:30:03;;;;;;;2.30;1.58;;;;;;;15.14;48.88;92536.84;5067890;28;20436;-81
2022/11/24 03:32:29;;;;;;;2.83;2.08;;;;;;;15.18;48.90;92544.69;5049497;28;20048;-83
2022/11/24 03:34:54;;;;;;;2.08;1.50;;;;;;;15.17;48.79;92546.69;5068986;28;20047;-81
2022/11/24 03:37:20;;;;;;;2.13;1.75;;;;;;;15.18;48.89;92550.16;5073223;28;20044;-81
2022/11/24 03:39:45;;;;;;;2.40;2.17;;;;;;;15.14;49.02;92558.63;5069662;28;20403;-82
2022/11/24 03:42:10;;;;;;;2.60;1.85;;;;;;;15.16;48.90;92545.22;5086866;28;20043;-81
2022/11/24 03:44:36;;;;;;;1.80;1.65;;;;;;;15.16;48.85;92558.09;5089742;28;20485;-82
2022/11/24 03:47:01;;;;;;;2.20;1.73;;;;;;;15.18;48.98;92566.47;5071379;28;20037;-81
2022/11/24 03:49:26;;;;;;;2.45;1.73;;;;;;;15.14;48.97;92574.94;5052715;28;20028;-82
2022/11/24 03:51:52;;;;;;;2.22;1.60;;;;;;;15.14;48.87;92566.03;5068977;28;20056;-81
2022/11/24 03:54:20;;;;;;;2.28;1.83;;;;;;;15.13;48.99;92568.03;5075399;28;20596;-81
2022/11/24 03:56:46;;;;;;;3.03;1.67;;;;;;;15.14;48.77;92574.22;5062002;28;20044;-81
2022/11/24 03:59:11;;;;;;;1.98;1.35;;;;;;;15.15;48.89;92584.59;5070207;28;20041;-81
2022/11/24 04:01:37;;;;;;;2.63;1.92;;;;;;;15.16;48.87;92588.75;5062180;28;20081;-81
2022/11/24 04:04:02;;;;;;;2.22;1.70;;;;;;;15.18;48.80;92590.97;5089020;28;20036;-83
2022/11/24 04:06:28;;;;;;;2.05;1.75;;;;;;;15.16;49.01;92602.38;5087702;28;20047;-81
2022/11/24 04:08:53;;;;;;;2.13;1.88;;;;;;;15.17;48.76;92601.13;5052175;28;20049;-81
2022/11/24 04:14:02;;;;;;;3.15;1.83;;;;;;;15.19;49.03;92604.09;5089822;28;20044;-81
2022/11/24 04:16:28;;;;;;;1.98;1.50;;;;;;;15.19;48.80;92606.81;5071189;28;20044;-81
2022/11/24 04:18:53;;;;;;;2.60;1.83;;;;;;;15.17;48.83;92608.56;5069934;28;20481;-82
2022/11/24 04:21:19;;;;;;;1.77;1.55;;;;;;;15.19;48.82;92603.34;5068026;28;20354;-81
2022/11/24 04:23:45;;;;;;;2.30;1.73;;;;;;;15.18;48.86;92613.50;5068460;28;20039;-82
2022/11/24 04:26:10;;;;;;;2.92;1.90;;;;;;;15.17;48.70;92622.16;5056579;28;20092;-81
2022/11/24 04:28:35;;;;;;;2.22;1.60;;;;;;;15.16;48.82;92624.16;5057495;28;20036;-82
2022/11/24 04:31:02;;;;;;;2.13;1.63;;;;;;;15.16;48.97;92623.41;5068124;28;20025;-82
2022/11/24 04:33:27;;;;;;;2.40;1.63;;;;;;;15.16;49.12;92629.59;5068724;28;20052;-82
2022/11/24 04:35:52;;;;;;;1.70;1.40;;;;;;;15.15;49.07;92621.97;5069544;28;20032;-82
2022/11/24 04:38:18;;;;;;;1.67;1.15;;;;;;;15.13;48.85;92636.09;5067188;28;20075;-82
2022/11/24 04:40:43;;;;;;;2.17;1.60;;;;;;;15.13;49.17;92625.19;5068663;28;20039;-81
2022/11/24 04:43:09;;;;;;;1.85;1.40;;;;;;;15.13;48.97;92638.81;5051166;28;20094;-81
2022/11/24 04:45:34;;;;;;;2.95;1.65;;;;;;;15.15;48.99;92644.47;5055826;28;20035;-81
2022/11/24 04:47:59;;;;;;;2.80;1.65;;;;;;;15.16;49.08;92640.50;5051176;28;20041;-82
2022/11/24 04:50:25;;;;;;;2.85;1.65;;;;;;;15.16;48.88;92643.22;5051111;28;20036;-80
2022/11/24 04:52:51;;;;;;;1.35;1.20;;;;;;;15.16;48.64;92648.66;5069892;28;20369;-81
2022/11/24 04:55:16;;;;;;;1.38;1.25;;;;;;;15.19;48.82;92646.91;5087438;28;20555;-82
2022/11/24 04:57:42;;;;;;;1.80;1.60;;;;;;;15.19;48.65;92652.34;5071458;28;20048;-82
2022/11/24 05:00:08;;;;;;;1.73;1.38;;;;;;;15.16;48.93;92656.09;5067180;28;20040;-82
2022/11/24 05:02:33;;;;;;;2.72;1.60;;;;;;;15.18;48.62;92657.06;5065441;28;20035;-82
2022/11/24 05:04:59;;;;;;;1.42;1.30;;;;;;;15.18;48.61;92642.69;5085005;28;20063;-82
2022/11/24 05:07:24;;;;;;;1.80;1.27;;;;;;;15.17;48.84;92660.28;5081197;28;20048;-81
2022/11/24 05:12:34;;;;;;;2.17;1.45;;;;;;;15.16;48.58;92662.25;5068576;28;20047;-82
2022/11/24 05:15:00;;;;;;;1.92;1.35;;;;;;;15.17;48.80;92658.31;5053002;28;20044;-82
2022/11/24 05:17:29;;;;;;;1.42;1.30;;;;;;;15.14;48.72;92664.78;5062434;28;20140;-82
2022/11/24 05:19:55;;;;;;;2.17;1.73;;;;;;;15.17;49.31;92663.75;5068967;28;20044;-82
2022/11/24 05:22:20;;;;;;;1.80;1.23;;;;;;;15.17;48.77;92660.28;5080159;28;20044;-81
2022/11/24 05:24:46;;;;;;;2.75;1.42;;;;;;;15.14;47.72;92672.94;5050625;28;20039;-80
2022/11/24 05:27:12;;;;;;;2.30;1.63;;;;;;;15.12;48.04;92669.25;5078249;28;20055;-81
2022/11/24 05:29:37;;;;;;;2.88;1.83;;;;;;;15.14;47.88;92672.22;5050437;28;20040;-81
2022/11/24 05:32:03;;;;;;;4.78;1.35;;;;;;;15.11;49.38;92684.84;5052908;28;20048;-81
2022/11/24 05:34:32;;;;;;;11.38;3.35;;;;;;;15.16;48.91;92681.31;5081268;28;20052;-83
2022/11/24 05:37:01;;;;;;;11.90;3.30;;;;;;;15.16;49.03;92675.88;5063354;28;20042;-80
2022/11/24 05:39:30;;;;;;;6.00;3.70;;;;;;;15.18;49.09;92686.25;5059715;28;20036;-83
2022/11/24 05:41:56;;;;;;;34.05;10.90;;;;;;;15.24;48.84;92698.59;5067067;28;20515;-90
2022/11/24 05:44:21;;;;;;;9.80;6.15;;;;;;;15.26;49.38;92695.38;5070595;28;20518;-81
2022/11/24 05:46:47;;;;;;;27.40;7.40;;;;;;;15.24;49.11;92695.88;5070570;28;20040;-84
2022/11/24 05:49:12;;;;;;;14.35;6.68;;;;;;;15.17;49.17;92701.84;5067026;28;20411;-85
2022/11/24 05:51:39;;;;;;;36.15;8.45;;;;;;;15.27;49.83;92703.03;5060449;28;20044;-82
2022/11/24 05:54:04;;;;;;;78.47;12.52;;;;;;;15.30;49.08;92704.00;5040843;28;20036;-85
2022/11/24 05:56:29;;;;;;;51.85;10.27;;;;;;;15.31;48.88;92702.75;5064470;28;20465;-82
2022/11/24 05:58:55;;;;;;;25.00;8.25;;;;;;;15.30;48.85;92699.28;5077042;28;20047;-84
2022/11/24 06:01:21;;;;;;;37.22;8.85;;;;;;;15.28;48.77;92707.22;5071907;28;20528;-86
2022/11/24 06:03:46;;;;;;;72.55;12.30;;;;;;;15.15;47.31;92704.38;5048182;28;20491;-84
2022/11/24 06:06:12;;;;;;;24.10;8.20;;;;;;;15.08;45.98;92708.38;5066073;28;20602;-86
2022/11/24 06:08:38;;;;;;;24.08;6.93;;;;;;;15.08;45.99;92702.19;5065922;28;20402;-86
2022/11/24 06:11:19;;;;;;;34.85;9.02;;;;;;;15.01;46.57;92719.78;5068767;28;20052;-84
2022/11/24 06:13:45;;;;;;;58.40;19.15;;;;;;;14.98;47.09;92722.78;5069139;28;20042;-85
2022/11/24 06:16:11;;;;;;;51.55;21.35;;;;;;;15.00;47.57;92731.94;5086029;28;20028;-83
2022/11/24 06:18:36;;;;;;;57.53;22.02;;;;;;;15.07;47.60;92727.94;5065670;28;20380;-87
2022/11/24 06:21:03;;;;;;;52.47;19.52;;;;;;;15.05;48.51;92723.00;5065400;28;20060;-83
2022/11/24 06:23:29;;;;;;;68.40;17.85;;;;;;;15.06;47.80;92724.47;5045815;28;20039;-88
2022/11/24 06:25:57;;;;;;;52.85;19.52;;;;;;;15.08;48.25;92732.88;5065406;28;20044;-86
2022/11/24 06:28:23;;;;;;;48.53;19.77;;;;;;;15.10;48.48;92732.38;5068566;28;20078;-88
2022/11/24 06:30:48;;;;;;;62.50;21.10;;;;;;;15.13;48.48;92738.78;5067174;28;20044;-88
2022/11/24 06:33:13;;;;;;;37.28;17.67;;;;;;;15.08;47.57;92732.88;5081577;28;20043;-84
2022/11/24 06:35:39;;;;;;;45.20;18.90;;;;;;;15.05;47.51;92735.84;5067213;28;20452;-87
2022/11/24 06:38:05;;;;;;;91.85;35.53;;;;;;;15.06;48.35;92723.72;5067318;28;20383;-85
2022/11/24 06:40:30;;;;;;;98.55;38.15;;;;;;;15.09;48.07;92739.78;5064537;28;20289;-87
2022/11/24 06:42:56;;;;;;;86.68;34.10;;;;;;;15.12;48.66;92748.19;5067498;28;20051;-86
2022/11/24 06:45:22;;;;;;;232.63;67.72;;;;;;;15.09;48.59;92737.06;5070868;28;20036;-82
2022/11/24 06:47:47;;;;;;;193.18;62.85;;;;;;;15.13;48.80;92741.50;5071389;28;20032;-88
2022/11/24 06:50:13;;;;;;;142.95;50.75;;;;;;;15.14;48.63;92746.44;5052507;28;20183;-86
2022/11/24 06:52:38;;;;;;;83.28;40.55;;;;;;;15.12;48.08;92743.50;5057411;28;20040;-85
2022/11/24 06:55:04;;;;;;;82.90;35.95;;;;;;;15.08;47.72;92754.66;5072854;28;20099;-86
2022/11/24 06:57:31;;;;;;;77.85;32.83;;;;;;;15.06;48.14;92751.69;5051323;28;20044;-85
2022/11/24 06:59:57;;;;;;;88.43;35.63;;;;;;;15.10;48.29;92759.59;5067206;28;20048;-86
2022/11/24 07:02:23;;;;;;;84.45;35.03;;;;;;;15.19;48.51;92761.25;5067041;28;20055;-85
2022/11/24 07:04:49;;;;;;;104.03;35.90;;;;;;;15.20;48.68;92763.47;5078495;28;20024;-86
2022/11/24 07:07:14;;;;;;;88.90;38.00;;;;;;;15.23;49.27;92764.44;5069704;28;20738;-84
2022/11/24 07:09:40;;;;;;;73.60;32.08;;;;;;;15.24;48.42;92774.09;5078890;28;20299;-86
2022/11/24 07:12:05;;;;;;;68.25;32.42;;;;;;;15.25;48.86;92772.84;5053189;28;20432;-84
2022/11/24 07:14:31;;;;;;;85.85;36.47;;;;;;;15.26;48.69;92785.97;5063581;28;20036;-83
2022/11/24 07:16:56;;;;;;;72.30;31.42;;;;;;;15.27;48.71;92783.97;5079614;28;20036;-86
2022/11/24 07:19:22;;;;;;;68.78;32.97;;;;;;;15.28;48.55;92793.63;5045263;28;20625;-82
2022/11/24 07:21:47;;;;;;;60.30;27.00;;;;;;;15.26;48.55;92780.50;5050195;28;20490;-82
2022/11/24 07:24:13;;;;;;;57.13;27.83;;;;;;;15.25;48.51;92800.81;5042849;28;20044;-86
2022/11/24 07:26:38;;;;;;;76.00;29.58;;;;;;;15.28;48.96;92807.25;5068506;28;20044;-82
2022/11/24 07:29:04;;;;;;;68.32;29.75;;;;;;;15.28;49.08;92804.50;5070346;28;20037;-81
2022/11/24 07:31:30;;;;;;;88.93;32.05;;;;;;;15.27;48.83;92822.84;5059978;28;20040;-81
2022/11/24 07:33:55;;;;;;;89.82;31.92;;;;;;;15.28;48.68;92823.56;5047050;28;20083;-84
2022/11/24 07:36:21;;;;;;;96.78;34.65;;;;;;;15.31;48.63;92828.03;5052963;28;20119;-80
2022/11/24 07:38:46;;;;;;;80.38;33.50;;;;;;;15.27;48.62;92828.28;5064182;28;20033;-88
2022/11/24 07:41:13;;;;;;;111.82;49.90;;;;;;;15.28;48.81;92826.31;5031847;28;20161;-78
2022/11/24 07:43:38;;;;;;;86.50;37.33;;;;;;;15.32;49.18;92832.22;5071107;28;20040;-87
2022/11/24 07:46:05;;;;;;;113.95;52.08;;;;;;;15.33;49.09;92839.16;5061393;28;20047;-79
2022/11/24 07:48:31;;;;;;;149.43;66.00;;;;;;;15.33;49.25;92842.63;5070432;28;20051;-80
2022/11/24 07:51:00;;;;;;;128.07;60.08;;;;;;;15.31;49.02;92849.81;5044133;28;20036;-82
2022/11/24 07:53:26;;;;;;;126.25;49.63;;;;;;;15.35;48.72;92842.13;5059072;28;20048;-85
2022/11/24 07:55:58;;;;;;;128.00;47.50;;;;;;;15.32;48.98;92852.03;5045196;28;20373;-83
2022/11/24 07:58:24;;;;;;;136.45;51.53;;;;;;;15.33;49.15;92853.50;5064370;28;20561;-82
2022/11/24 08:00:49;;;;;;;118.35;48.63;;;;;;;15.32;49.15;92852.03;5076307;28;20135;-81
2022/11/24 08:03:15;;;;;;;106.35;42.72;;;;;;;15.35;49.12;92855.72;5047419;28;20439;-82
2022/11/24 08:05:41;;;;;;;82.88;36.00;;;;;;;15.35;49.32;92858.44;5070765;28;20391;-84
2022/11/24 08:08:06;;;;;;;86.45;37.42;;;;;;;15.37;48.87;92853.25;5044224;28;20123;-81
2022/11/24 08:10:32;;;;;;;91.28;35.20;;;;;;;15.33;49.61;92855.50;5047531;28;20119;-83
2022/11/24 08:13:01;;;;;;;96.13;36.35;;;;;;;15.36;49.10;92865.38;5063643;28;20633;-86
2022/11/24 08:15:26;;;;;;;128.73;54.58;;;;;;;15.35;49.30;92858.44;5063792;28;20060;-84
2022/11/24 08:17:52;;;;;;;97.82;50.10;;;;;;;15.37;49.44;92858.69;5048579;28;20456;-86
2022/11/24 08:20:17;;;;;;;52.75;21.63;;;;;;;15.27;47.65;92858.22;5086139;28;20521;-83
2022/11/24 08:22:43;;;;;;;41.72;19.80;;;;;;;15.22;48.21;92859.00;5049287;28;20524;-80
2022/11/24 08:25:09;;;;;;;59.05;26.40;;;;;;;15.22;48.05;92864.44;5065965;28;20040;-86
2022/11/24 08:27:35;;;;;;;63.95;29.73;;;;;;;15.25;48.55;92873.59;5069598;28;20090;-86
2022/11/24 08:30:00;;;;;;;69.70;34.15;;;;;;;15.22;48.90;92872.63;5046948;28;20116;-80
2022/11/24 08:32:26;;;;;;;67.50;31.10;;;;;;;15.23;49.15;92868.66;5081092;28;20045;-80
2022/11/24 08:34:51;;;;;;;85.50;35.63;;;;;;;15.25;49.07;92868.88;5061765;28;20043;-82
2022/11/24 08:37:17;;;;;;;66.22;31.45;;;;;;;15.25;48.90;92871.59;5063688;28;20461;-81
2022/11/24 08:39:42;;;;;;;65.60;30.40;;;;;;;15.26;48.54;92875.06;5061574;28;20415;-81
2022/11/24 08:42:08;;;;;;;80.22;29.55;;;;;;;15.26;48.47;92873.09;5078683;28;20040;-81
2022/11/24 08:44:33;;;;;;;54.58;25.83;;;;;;;15.21;48.63;92882.03;5077414;28;20264;-90
2022/11/24 08:46:59;;;;;;;56.03;26.42;;;;;;;15.22;48.91;92869.16;5064433;28;20086;-85
2022/11/24 08:49:25;;;;;;;66.20;33.42;;;;;;;15.27;48.95;92873.84;5038588;28;20071;-83
2022/11/24 08:51:50;;;;;;;58.70;24.92;;;;;;;15.23;48.93;92882.25;5072947;28;20044;-83
2022/11/24 08:54:17;;;;;;;35.72;21.00;;;;;;;15.22;48.65;92880.03;5076154;28;20188;-82
2022/11/24 08:56:43;;;;;;;53.25;24.00;;;;;;;15.19;49.08;92873.63;5078032;28;20491;-83
2022/11/24 08:59:11;;;;;;;55.75;21.70;;;;;;;15.19;49.43;92872.88;5063325;28;20040;-81
2022/11/24 09:01:36;;;;;;;41.65;22.25;;;;;;;15.24;49.19;92881.03;5078777;28;20044;-84
2022/11/24 09:04:04;;;;;;;39.58;22.00;;;;;;;15.21;49.36;92881.28;5067733;28;20082;-82
2022/11/24 09:06:30;;;;;;;41.28;20.25;;;;;;;15.20;49.76;92879.78;5052461;28;21281;-83
2022/11/24 09:08:55;;;;;;;32.70;19.73;;;;;;;15.22;49.88;92880.78;5043879;28;20036;-82
2022/11/24 09:11:21;;;;;;;41.22;20.08;;;;;;;15.24;49.25;92883.75;5056430;28;20040;-83
2022/11/24 09:13:47;;;;;;;41.85;22.27;;;;;;;15.27;50.04;92877.28;5057658;28;20041;-81
2022/11/24 09:16:14;;;;;;;39.08;22.98;;;;;;;15.27;50.22;92882.75;5047557;28;20032;-78
2022/11/24 09:18:40;;;;;;;40.15;20.00;;;;;;;15.25;49.91;92881.75;5060030;28;20121;-81
2022/11/24 09:21:09;;;;;;;34.05;20.13;;;;;;;15.25;50.32;92889.94;5061258;28;20040;-84
2022/11/24 09:23:35;;;;;;;43.17;19.27;;;;;;;15.27;50.15;92895.63;5059407;28;20644;-81
2022/11/24 09:26:12;;;;;;;49.22;22.75;;;;;;;15.29;50.29;92887.69;5084378;28;20132;-84
2022/11/24 09:28:37;;;;;;;39.20;23.02;;;;;;;15.27;50.41;92887.44;5066608;28;20067;-83
2022/11/24 09:31:03;;;;;;;37.97;22.98;;;;;;;15.28;51.28;92889.66;5054357;28;20503;-82
2022/11/24 09:33:29;;;;;;;30.90;19.20;;;;;;;15.30;51.25;92892.63;5055515;28;20033;-83
2022/11/24 09:35:55;;;;;;;37.47;22.27;;;;;;;15.29;51.05;92885.69;5056667;28;20128;-83
2022/11/24 09:38:21;;;;;;;46.22;22.40;;;;;;;15.31;50.85;92894.13;5071151;28;20100;-82
2022/11/24 09:40:47;;;;;;;64.88;23.67;;;;;;;15.30;50.96;92881.00;5064354;28;21502;-80
2022/11/24 09:43:18;;;;;;;50.20;23.38;;;;;;;15.33;50.52;92885.44;5046223;28;20138;-81
2022/11/24 09:45:56;;;;;;;51.00;23.48;;;;;;;15.29;50.53;92877.53;5066513;28;20040;-83
2022/11/24 09:48:27;;;;;;;58.85;31.35;;;;;;;15.31;50.78;92883.22;5045240;28;20036;-82
2022/11/24 09:50:53;;;;;;;;;;;;;;;15.32;50.76;92878.50;5063677;28;20459;-83
2022/11/24 09:53:26;;;;;;;64.85;34.05;;;;;;;15.32;50.71;92884.69;5053783;28;19983;-81
2022/11/24 09:55:57;;;;;;;47.63;30.15;;;;;;;15.27;50.66;92884.72;5071104;28;20132;-81
2022/11/24 09:58:44;;;;;;;58.83;33.35;;;;;;;15.26;50.76;92894.13;5047994;28;20816;-81
2022/11/24 10:01:17;;;;;;;77.65;45.95;;;;;;;15.24;50.89;92883.75;5067487;28;20053;-80
2022/11/24 10:03:45;;;;;;;73.18;43.30;;;;;;;15.28;51.42;92895.13;5041496;28;20043;-80
2022/11/24 10:06:25;;;;;;;87.80;47.33;;;;;;;15.26;51.42;92896.84;5049058;28;20056;-81
2022/11/24 10:09:12;;;;;;;82.40;45.05;;;;;;;15.29;51.39;92899.31;5032396;28;20041;-82
2022/11/24 10:11:56;;;;;;;183.75;94.47;;;;;;;15.26;51.63;92903.03;5060198;28;20561;-87
2022/11/24 10:14:47;;;;;;;77.82;39.92;;;;;;;15.24;50.92;92904.78;5044827;28;20092;-83
2022/11/24 10:17:29;;;;;;;118.32;56.38;;;;;;;15.22;50.81;92910.00;5042233;28;20041;-81
2022/11/24 10:20:22;;;;;;;147.85;76.10;;;;;;;15.25;50.83;92906.25;5040180;28;20121;-84
2022/11/24 10:22:51;;;;;;;168.70;90.22;;;;;;;15.26;51.03;92907.75;5045151;28;20451;-83
2022/11/24 10:25:20;;;;;;;164.45;86.57;;;;;;;15.26;51.52;92902.31;5059711;28;20059;-82
2022/11/24 10:27:58;;;;;;;218.80;117.85;;;;;;;15.28;51.38;92906.00;5026677;28;20571;-83
2022/11/24 10:30:24;;;;;;;182.65;100.45;;;;;;;15.31;51.53;92909.72;5017687;28;20044;-82
2022/11/24 10:32:59;;;;;;;145.27;79.57;;;;;;;15.33;51.20;92907.22;5049797;28;20523;-82
2022/11/24 10:35:34;;;;;;;186.85;97.97;;;;;;;15.31;51.55;92904.25;5043738;28;20055;-83
2022/11/24 10:38:20;;;;;;;134.55;69.85;;;;;;;15.32;51.51;92911.19;5066845;28;20091;-83
2022/11/24 10:40:56;;;;;;;117.75;66.57;;;;;;;15.33;51.57;92907.97;5084595;28;20541;-82
2022/11/24 10:43:21;;;;;;;159.52;85.65;;;;;;;15.34;51.74;92908.72;5067271;28;20064;-81
2022/11/24 10:45:47;;;;;;;102.05;55.88;;;;;;;15.31;51.79;92915.91;5079835;28;20032;-83
2022/11/24 10:48:23;;;;;;;120.45;66.07;;;;;;;15.32;51.38;92913.91;5055096;28;20033;-83
2022/11/24 10:50:48;;;;;;;142.63;70.82;;;;;;;15.34;51.92;92909.44;5067865;28;20056;-83
2022/11/24 10:53:17;;;;;;;135.23;68.70;;;;;;;15.36;51.67;92908.94;5066291;28;20036;-83
2022/11/24 10:55:55;;;;;;;132.93;67.30;;;;;;;15.34;51.63;92912.19;5077075;28;20051;-83
2022/11/24 10:58:28;;;;;;;125.97;64.07;;;;;;;15.35;51.63;92919.09;5069209;28;20064;-86
2022/11/24 11:00:54;;;;;;;216.80;87.00;;;;;;;15.38;51.55;92915.34;5034754;28;20043;-85
2022/11/24 11:03:24;;;;;;;171.13;87.88;;;;;;;15.38;51.56;92928.22;5027860;28;20037;-82
2022/11/24 11:05:55;;;;;;;151.15;76.25;;;;;;;15.36;51.91;92920.59;5026458;28;20052;-83
2022/11/24 11:08:29;;;;;;;173.15;90.03;;;;;;;15.40;52.22;92925.75;5033911;28;20071;-88
2022/11/24 11:11:11;;;;;;;112.85;64.40;;;;;;;15.35;51.99;92935.44;5011246;28;20029;-84
2022/11/24 11:13:39;;;;;;;132.25;71.93;;;;;;;15.35;51.79;92930.00;5041630;28;20037;-82
2022/11/24 11:16:17;;;;;;;155.48;89.30;;;;;;;15.35;51.98;92924.56;5025985;28;20052;-82
2022/11/24 11:18:47;;;;;;;128.32;68.53;;;;;;;15.34;51.61;92928.50;5014370;28;20037;-83
2022/11/24 11:21:30;;;;;;;121.63;69.97;;;;;;;15.37;52.03;92922.03;5031154;28;20039;-85
2022/11/24 11:23:56;;;;;;;120.63;70.10;;;;;;;15.36;51.89;92931.47;5030555;28;20537;-81
2022/11/24 11:26:24;;;;;;;117.72;68.75;;;;;;;15.37;51.98;92927.47;5009020;28;20051;-83
2022/11/24 11:29:00;;;;;;;111.40;65.85;;;;;;;15.35;52.07;92932.72;5051654;28;20037;-82
2022/11/24 11:31:26;;;;;;;110.68;63.85;;;;;;;15.36;51.94;92928.75;5039338;28;20101;-84